sensor_id;sensor_type;location;lat;lon;timestamp;P1;durP1;ratioP1;P2;durP2;ratioP2
10303;SDS011;5197;48.152;8.590;2023-11-21T00:00:37;1.70;;;0.80;;
10303;SDS011;5197;48.152;8.590;2023-11-21T00:03:04;1.87;;;0.90;;
10303;SDS011;5197;48.152;8.590;2023-11-21T00:05:31;2.70;;;1.03;;
10303;SDS011;5197;48.152;8.590;2023-11-21T00:07:59;1.00;;;0.63;;
10303;SDS011;5197;48.152;8.590;2023-11-21T00:10:26;0.63;;;0.57;;
10303;SDS011;5197;48.152;8.590;2023-11-21T00:12:53;3.10;;;0.60;;
10303;SDS011;5197;48.152;8.590;2023-11-21T00:15:21;2.27;;;0.83;;
10303;SDS011;5197;48.152;8.590;2023-11-21T00:17:48;3.07;;;0.90;;
10303;SDS011;5197;48.152;8.590;2023-11-21T00:20:16;1.17;;;0.67;;
10303;SDS011;5197;48.152;8.590;2023-11-21T00:22:43;0.87;;;0.60;;
10303;SDS011;5197;48.152;8.590;2023-11-21T00:25:10;1.80;;;0.50;;
10303;SDS011;5197;48.152;8.590;2023-11-21T00:27:38;2.63;;;0.70;;
10303;SDS011;5197;48.152;8.590;2023-11-21T00:30:05;1.80;;;0.63;;
10303;SDS011;5197;48.152;8.590;2023-11-21T00:32:34;1.70;;;0.53;;
10303;SDS011;5197;48.152;8.590;2023-11-21T00:35:02;1.33;;;0.70;;
10303;SDS011;5197;48.152;8.590;2023-11-21T00:37:29;1.27;;;0.50;;
10303;SDS011;5197;48.152;8.590;2023-11-21T00:39:58;0.80;;;0.70;;
10303;SDS011;5197;48.152;8.590;2023-11-21T00:42:25;0.77;;;0.57;;
10303;SDS011;5197;48.152;8.590;2023-11-21T00:44:53;2.30;;;0.70;;
10303;SDS011;5197;48.152;8.590;2023-11-21T00:47:20;2.37;;;0.80;;
10303;SDS011;5197;48.152;8.590;2023-11-21T00:49:47;2.67;;;1.00;;
10303;SDS011;5197;48.152;8.590;2023-11-21T00:52:15;1.60;;;0.60;;
10303;SDS011;5197;48.152;8.590;2023-11-21T00:54:42;3.63;;;0.97;;
10303;SDS011;5197;48.152;8.590;2023-11-21T00:57:10;1.73;;;1.07;;
10303;SDS011;5197;48.152;8.590;2023-11-21T00:59:38;1.73;;;1.30;;
10303;SDS011;5197;48.152;8.590;2023-11-21T01:02:05;1.40;;;1.03;;
10303;SDS011;5197;48.152;8.590;2023-11-21T01:04:32;3.10;;;1.23;;
10303;SDS011;5197;48.152;8.590;2023-11-21T01:06:59;1.10;;;1.00;;
10303;SDS011;5197;48.152;8.590;2023-11-21T01:09:26;2.53;;;1.20;;
10303;SDS011;5197;48.152;8.590;2023-11-21T01:11:54;3.53;;;0.90;;
10303;SDS011;5197;48.152;8.590;2023-11-21T01:14:21;2.73;;;0.80;;
10303;SDS011;5197;48.152;8.590;2023-11-21T01:16:48;3.10;;;0.63;;
10303;SDS011;5197;48.152;8.590;2023-11-21T01:19:15;4.43;;;0.70;;
10303;SDS011;5197;48.152;8.590;2023-11-21T01:21:43;3.00;;;0.70;;
10303;SDS011;5197;48.152;8.590;2023-11-21T01:24:10;1.40;;;0.63;;
10303;SDS011;5197;48.152;8.590;2023-11-21T01:26:37;2.30;;;0.80;;
10303;SDS011;5197;48.152;8.590;2023-11-21T01:29:04;4.37;;;0.70;;
10303;SDS011;5197;48.152;8.590;2023-11-21T01:31:31;1.97;;;0.53;;
10303;SDS011;5197;48.152;8.590;2023-11-21T01:33:58;3.90;;;0.80;;
10303;SDS011;5197;48.152;8.590;2023-11-21T01:36:31;1.37;;;0.87;;
10303;SDS011;5197;48.152;8.590;2023-11-21T01:38:59;1.33;;;0.70;;
10303;SDS011;5197;48.152;8.590;2023-11-21T01:41:27;1.80;;;0.53;;
10303;SDS011;5197;48.152;8.590;2023-11-21T01:43:55;1.40;;;0.60;;
10303;SDS011;5197;48.152;8.590;2023-11-21T01:46:23;0.80;;;0.50;;
10303;SDS011;5197;48.152;8.590;2023-11-21T01:48:51;4.07;;;0.67;;
10303;SDS011;5197;48.152;8.590;2023-11-21T01:51:19;2.13;;;0.60;;
10303;SDS011;5197;48.152;8.590;2023-11-21T01:53:46;0.60;;;0.60;;
10303;SDS011;5197;48.152;8.590;2023-11-21T01:56:14;0.60;;;0.60;;
10303;SDS011;5197;48.152;8.590;2023-11-21T01:58:43;0.70;;;0.40;;
10303;SDS011;5197;48.152;8.590;2023-11-21T02:01:10;1.80;;;0.67;;
10303;SDS011;5197;48.152;8.590;2023-11-21T02:03:37;2.73;;;1.00;;
10303;SDS011;5197;48.152;8.590;2023-11-21T02:06:05;1.70;;;0.80;;
10303;SDS011;5197;48.152;8.590;2023-11-21T02:08:32;2.77;;;1.20;;
10303;SDS011;5197;48.152;8.590;2023-11-21T02:10:59;3.33;;;1.10;;
10303;SDS011;5197;48.152;8.590;2023-11-21T02:13:26;2.00;;;0.90;;
10303;SDS011;5197;48.152;8.590;2023-11-21T02:15:53;1.00;;;0.90;;
10303;SDS011;5197;48.152;8.590;2023-11-21T02:18:21;1.27;;;0.67;;
10303;SDS011;5197;48.152;8.590;2023-11-21T02:20:48;2.20;;;1.03;;
10303;SDS011;5197;48.152;8.590;2023-11-21T02:23:16;0.60;;;0.60;;
10303;SDS011;5197;48.152;8.590;2023-11-21T02:25:44;0.80;;;0.80;;
10303;SDS011;5197;48.152;8.590;2023-11-21T02:28:11;2.30;;;0.87;;
10303;SDS011;5197;48.152;8.590;2023-11-21T02:30:41;1.00;;;0.60;;
10303;SDS011;5197;48.152;8.590;2023-11-21T02:33:10;2.00;;;0.80;;
10303;SDS011;5197;48.152;8.590;2023-11-21T02:35:38;1.17;;;0.37;;
10303;SDS011;5197;48.152;8.590;2023-11-21T02:38:06;0.93;;;0.50;;
10303;SDS011;5197;48.152;8.590;2023-11-21T02:40:33;2.20;;;0.70;;
10303;SDS011;5197;48.152;8.590;2023-11-21T02:43:00;1.23;;;0.67;;
10303;SDS011;5197;48.152;8.590;2023-11-21T02:45:27;0.83;;;0.57;;
10303;SDS011;5197;48.152;8.590;2023-11-21T02:47:54;0.97;;;0.47;;
10303;SDS011;5197;48.152;8.590;2023-11-21T02:50:24;0.57;;;0.53;;
10303;SDS011;5197;48.152;8.590;2023-11-21T02:52:51;0.57;;;0.50;;
10303;SDS011;5197;48.152;8.590;2023-11-21T02:55:18;0.50;;;0.50;;
10303;SDS011;5197;48.152;8.590;2023-11-21T02:57:45;2.33;;;0.63;;
10303;SDS011;5197;48.152;8.590;2023-11-21T03:00:12;0.87;;;0.43;;
10303;SDS011;5197;48.152;8.590;2023-11-21T03:02:41;1.67;;;0.40;;
10303;SDS011;5197;48.152;8.590;2023-11-21T03:05:10;1.30;;;0.60;;
10303;SDS011;5197;48.152;8.590;2023-11-21T03:07:38;0.53;;;0.33;;
10303;SDS011;5197;48.152;8.590;2023-11-21T03:10:06;0.43;;;0.43;;
10303;SDS011;5197;48.152;8.590;2023-11-21T03:12:39;0.60;;;0.40;;
10303;SDS011;5197;48.152;8.590;2023-11-21T03:15:07;1.27;;;0.57;;
10303;SDS011;5197;48.152;8.590;2023-11-21T03:17:37;1.03;;;0.40;;
10303;SDS011;5197;48.152;8.590;2023-11-21T03:20:05;0.50;;;0.50;;
10303;SDS011;5197;48.152;8.590;2023-11-21T03:22:37;4.43;;;0.80;;
10303;SDS011;5197;48.152;8.590;2023-11-21T03:25:05;2.43;;;0.80;;
10303;SDS011;5197;48.152;8.590;2023-11-21T03:27:33;1.47;;;0.63;;
10303;SDS011;5197;48.152;8.590;2023-11-21T03:30:00;0.73;;;0.70;;
10303;SDS011;5197;48.152;8.590;2023-11-21T03:32:27;1.90;;;0.73;;
10303;SDS011;5197;48.152;8.590;2023-11-21T03:34:55;2.83;;;0.60;;
10303;SDS011;5197;48.152;8.590;2023-11-21T03:37:25;1.47;;;0.60;;
10303;SDS011;5197;48.152;8.590;2023-11-21T03:39:55;0.83;;;0.57;;
10303;SDS011;5197;48.152;8.590;2023-11-21T03:42:23;2.40;;;0.50;;
10303;SDS011;5197;48.152;8.590;2023-11-21T03:44:54;0.30;;;0.30;;
10303;SDS011;5197;48.152;8.590;2023-11-21T03:47:21;0.70;;;0.70;;
10303;SDS011;5197;48.152;8.590;2023-11-21T03:49:48;2.47;;;0.93;;
10303;SDS011;5197;48.152;8.590;2023-11-21T03:52:16;1.50;;;0.73;;
10303;SDS011;5197;48.152;8.590;2023-11-21T03:54:44;0.73;;;0.50;;
10303;SDS011;5197;48.152;8.590;2023-11-21T03:57:11;0.90;;;0.50;;
10303;SDS011;5197;48.152;8.590;2023-11-21T03:59:42;0.77;;;0.77;;
10303;SDS011;5197;48.152;8.590;2023-11-21T04:02:10;0.93;;;0.80;;
10303;SDS011;5197;48.152;8.590;2023-11-21T04:04:37;0.57;;;0.50;;
10303;SDS011;5197;48.152;8.590;2023-11-21T04:07:05;2.03;;;0.90;;
10303;SDS011;5197;48.152;8.590;2023-11-21T04:09:32;0.70;;;0.53;;
10303;SDS011;5197;48.152;8.590;2023-11-21T04:11:59;1.47;;;0.60;;
10303;SDS011;5197;48.152;8.590;2023-11-21T04:14:26;0.40;;;0.40;;
10303;SDS011;5197;48.152;8.590;2023-11-21T04:16:53;0.90;;;0.90;;
10303;SDS011;5197;48.152;8.590;2023-11-21T04:19:21;2.23;;;0.70;;
10303;SDS011;5197;48.152;8.590;2023-11-21T04:21:48;3.30;;;1.07;;
10303;SDS011;5197;48.152;8.590;2023-11-21T04:24:15;0.53;;;0.50;;
10303;SDS011;5197;48.152;8.590;2023-11-21T04:26:43;1.83;;;0.70;;
10303;SDS011;5197;48.152;8.590;2023-11-21T04:29:11;2.00;;;0.80;;
10303;SDS011;5197;48.152;8.590;2023-11-21T04:31:38;0.47;;;0.47;;
10303;SDS011;5197;48.152;8.590;2023-11-21T04:34:05;1.20;;;0.50;;
10303;SDS011;5197;48.152;8.590;2023-11-21T04:36:32;0.97;;;0.67;;
10303;SDS011;5197;48.152;8.590;2023-11-21T04:38:59;0.60;;;0.47;;
10303;SDS011;5197;48.152;8.590;2023-11-21T04:41:26;0.60;;;0.60;;
10303;SDS011;5197;48.152;8.590;2023-11-21T04:43:53;0.70;;;0.50;;
10303;SDS011;5197;48.152;8.590;2023-11-21T04:46:20;0.53;;;0.53;;
10303;SDS011;5197;48.152;8.590;2023-11-21T04:48:48;1.93;;;0.93;;
10303;SDS011;5197;48.152;8.590;2023-11-21T04:51:15;0.87;;;0.40;;
10303;SDS011;5197;48.152;8.590;2023-11-21T04:53:42;0.93;;;0.50;;
10303;SDS011;5197;48.152;8.590;2023-11-21T04:56:10;0.33;;;0.30;;
10303;SDS011;5197;48.152;8.590;2023-11-21T04:58:37;0.93;;;0.50;;
10303;SDS011;5197;48.152;8.590;2023-11-21T05:01:07;1.87;;;0.47;;
10303;SDS011;5197;48.152;8.590;2023-11-21T05:03:34;2.10;;;0.70;;
10303;SDS011;5197;48.152;8.590;2023-11-21T05:06:02;0.60;;;0.60;;
10303;SDS011;5197;48.152;8.590;2023-11-21T05:08:31;1.63;;;0.63;;
10303;SDS011;5197;48.152;8.590;2023-11-21T05:10:58;1.03;;;0.97;;
10303;SDS011;5197;48.152;8.590;2023-11-21T05:13:25;0.87;;;0.60;;
10303;SDS011;5197;48.152;8.590;2023-11-21T05:15:54;0.93;;;0.93;;
10303;SDS011;5197;48.152;8.590;2023-11-21T05:18:23;1.03;;;0.60;;
10303;SDS011;5197;48.152;8.590;2023-11-21T05:20:53;1.90;;;1.27;;
10303;SDS011;5197;48.152;8.590;2023-11-21T05:23:20;2.00;;;1.20;;
10303;SDS011;5197;48.152;8.590;2023-11-21T05:25:47;1.07;;;1.07;;
10303;SDS011;5197;48.152;8.590;2023-11-21T05:28:15;1.50;;;0.70;;
10303;SDS011;5197;48.152;8.590;2023-11-21T05:30:42;0.50;;;0.50;;
10303;SDS011;5197;48.152;8.590;2023-11-21T05:33:10;2.20;;;1.03;;
10303;SDS011;5197;48.152;8.590;2023-11-21T05:35:37;1.60;;;1.00;;
10303;SDS011;5197;48.152;8.590;2023-11-21T05:38:04;1.07;;;0.80;;
10303;SDS011;5197;48.152;8.590;2023-11-21T05:40:31;1.40;;;0.80;;
10303;SDS011;5197;48.152;8.590;2023-11-21T05:42:59;1.47;;;0.80;;
10303;SDS011;5197;48.152;8.590;2023-11-21T05:45:26;2.37;;;2.17;;
10303;SDS011;5197;48.152;8.590;2023-11-21T05:47:55;2.60;;;1.70;;
10303;SDS011;5197;48.152;8.590;2023-11-21T05:50:22;7.33;;;6.63;;
10303;SDS011;5197;48.152;8.590;2023-11-21T05:52:49;11.80;;;10.57;;
10303;SDS011;5197;48.152;8.590;2023-11-21T05:55:17;14.63;;;10.33;;
10303;SDS011;5197;48.152;8.590;2023-11-21T05:57:44;7.93;;;7.33;;
10303;SDS011;5197;48.152;8.590;2023-11-21T06:00:12;4.70;;;4.30;;
10303;SDS011;5197;48.152;8.590;2023-11-21T06:02:44;2.60;;;2.40;;
10303;SDS011;5197;48.152;8.590;2023-11-21T06:05:12;2.40;;;2.20;;
10303;SDS011;5197;48.152;8.590;2023-11-21T06:07:39;2.00;;;1.80;;
10303;SDS011;5197;48.152;8.590;2023-11-21T06:10:07;2.87;;;1.50;;
10303;SDS011;5197;48.152;8.590;2023-11-21T06:12:37;2.03;;;1.83;;
10303;SDS011;5197;48.152;8.590;2023-11-21T06:15:06;1.37;;;1.20;;
10303;SDS011;5197;48.152;8.590;2023-11-21T06:17:35;1.53;;;1.43;;
10303;SDS011;5197;48.152;8.590;2023-11-21T06:20:03;1.70;;;1.60;;
10303;SDS011;5197;48.152;8.590;2023-11-21T06:22:36;1.50;;;1.40;;
10303;SDS011;5197;48.152;8.590;2023-11-21T06:25:05;1.80;;;1.70;;
10303;SDS011;5197;48.152;8.590;2023-11-21T06:27:34;1.50;;;1.40;;
10303;SDS011;5197;48.152;8.590;2023-11-21T06:30:07;2.03;;;1.63;;
10303;SDS011;5197;48.152;8.590;2023-11-21T06:32:36;2.07;;;1.67;;
10303;SDS011;5197;48.152;8.590;2023-11-21T06:35:04;3.53;;;2.30;;
10303;SDS011;5197;48.152;8.590;2023-11-21T06:37:32;3.17;;;1.60;;
10303;SDS011;5197;48.152;8.590;2023-11-21T06:40:00;2.07;;;1.97;;
10303;SDS011;5197;48.152;8.590;2023-11-21T06:42:27;1.90;;;1.80;;
10303;SDS011;5197;48.152;8.590;2023-11-21T06:44:55;2.90;;;2.27;;
10303;SDS011;5197;48.152;8.590;2023-11-21T06:47:24;3.40;;;3.20;;
10303;SDS011;5197;48.152;8.590;2023-11-21T06:49:52;4.83;;;3.30;;
10303;SDS011;5197;48.152;8.590;2023-11-21T06:52:20;2.50;;;2.30;;
10303;SDS011;5197;48.152;8.590;2023-11-21T06:54:47;3.10;;;2.90;;
10303;SDS011;5197;48.152;8.590;2023-11-21T06:57:16;4.30;;;3.37;;
10303;SDS011;5197;48.152;8.590;2023-11-21T06:59:43;6.27;;;4.50;;
10303;SDS011;5197;48.152;8.590;2023-11-21T07:02:11;6.20;;;3.90;;
10303;SDS011;5197;48.152;8.590;2023-11-21T07:04:38;4.70;;;3.73;;
10303;SDS011;5197;48.152;8.590;2023-11-21T07:07:05;5.73;;;3.97;;
10303;SDS011;5197;48.152;8.590;2023-11-21T07:09:33;7.70;;;4.50;;
10303;SDS011;5197;48.152;8.590;2023-11-21T07:12:01;7.27;;;4.57;;
10303;SDS011;5197;48.152;8.590;2023-11-21T07:14:30;21.33;;;10.13;;
10303;SDS011;5197;48.152;8.590;2023-11-21T07:16:58;8.57;;;5.50;;
10303;SDS011;5197;48.152;8.590;2023-11-21T07:19:25;3.33;;;3.00;;
10303;SDS011;5197;48.152;8.590;2023-11-21T07:21:53;6.00;;;4.20;;
10303;SDS011;5197;48.152;8.590;2023-11-21T07:24:20;4.67;;;3.23;;
10303;SDS011;5197;48.152;8.590;2023-11-21T07:26:49;5.13;;;3.70;;
10303;SDS011;5197;48.152;8.590;2023-11-21T07:29:16;11.90;;;5.50;;
10303;SDS011;5197;48.152;8.590;2023-11-21T07:31:43;11.37;;;5.43;;
10303;SDS011;5197;48.152;8.590;2023-11-21T07:34:10;5.47;;;3.57;;
10303;SDS011;5197;48.152;8.590;2023-11-21T07:36:38;5.70;;;4.57;;
10303;SDS011;5197;48.152;8.590;2023-11-21T07:39:05;11.47;;;5.67;;
10303;SDS011;5197;48.152;8.590;2023-11-21T07:41:33;9.40;;;4.93;;
10303;SDS011;5197;48.152;8.590;2023-11-21T07:44:00;6.60;;;4.10;;
10303;SDS011;5197;48.152;8.590;2023-11-21T07:46:27;4.43;;;4.03;;
10303;SDS011;5197;48.152;8.590;2023-11-21T07:48:54;4.50;;;3.37;;
10303;SDS011;5197;48.152;8.590;2023-11-21T07:51:21;8.00;;;4.27;;
10303;SDS011;5197;48.152;8.590;2023-11-21T07:53:50;13.87;;;5.40;;
10303;SDS011;5197;48.152;8.590;2023-11-21T07:56:17;14.97;;;6.00;;
10303;SDS011;5197;48.152;8.590;2023-11-21T07:58:44;11.10;;;5.43;;
10303;SDS011;5197;48.152;8.590;2023-11-21T08:01:12;4.50;;;4.10;;
10303;SDS011;5197;48.152;8.590;2023-11-21T08:03:39;5.40;;;3.83;;
10303;SDS011;5197;48.152;8.590;2023-11-21T08:06:06;10.23;;;6.77;;
10303;SDS011;5197;48.152;8.590;2023-11-21T08:08:35;11.63;;;7.07;;
10303;SDS011;5197;48.152;8.590;2023-11-21T08:11:07;11.50;;;7.53;;
10303;SDS011;5197;48.152;8.590;2023-11-21T08:13:37;9.43;;;6.80;;
10303;SDS011;5197;48.152;8.590;2023-11-21T08:16:06;6.13;;;5.50;;
10303;SDS011;5197;48.152;8.590;2023-11-21T08:18:38;8.60;;;7.30;;
10303;SDS011;5197;48.152;8.590;2023-11-21T08:21:31;6.37;;;5.60;;
10303;SDS011;5197;48.152;8.590;2023-11-21T08:24:01;5.97;;;4.50;;
10303;SDS011;5197;48.152;8.590;2023-11-21T08:26:32;4.87;;;4.40;;
10303;SDS011;5197;48.152;8.590;2023-11-21T08:29:03;6.27;;;4.00;;
10303;SDS011;5197;48.152;8.590;2023-11-21T08:31:34;7.10;;;4.63;;
10303;SDS011;5197;48.152;8.590;2023-11-21T08:34:02;11.53;;;6.50;;
10303;SDS011;5197;48.152;8.590;2023-11-21T08:36:30;3.90;;;3.50;;
10303;SDS011;5197;48.152;8.590;2023-11-21T08:38:58;3.30;;;3.00;;
10303;SDS011;5197;48.152;8.590;2023-11-21T08:41:25;3.33;;;3.03;;
10303;SDS011;5197;48.152;8.590;2023-11-21T08:43:54;2.67;;;2.47;;
10303;SDS011;5197;48.152;8.590;2023-11-21T08:46:21;2.37;;;2.20;;
10303;SDS011;5197;48.152;8.590;2023-11-21T08:48:49;2.60;;;2.40;;
10303;SDS011;5197;48.152;8.590;2023-11-21T08:51:19;1.80;;;1.70;;
10303;SDS011;5197;48.152;8.590;2023-11-21T08:53:46;2.93;;;1.80;;
10303;SDS011;5197;48.152;8.590;2023-11-21T08:56:14;2.53;;;1.80;;
10303;SDS011;5197;48.152;8.590;2023-11-21T08:58:41;2.10;;;1.87;;
10303;SDS011;5197;48.152;8.590;2023-11-21T09:01:08;1.80;;;1.70;;
10303;SDS011;5197;48.152;8.590;2023-11-21T09:03:35;2.10;;;1.93;;
10303;SDS011;5197;48.152;8.590;2023-11-21T09:06:03;1.90;;;1.80;;
10303;SDS011;5197;48.152;8.590;2023-11-21T09:08:31;1.97;;;1.87;;
10303;SDS011;5197;48.152;8.590;2023-11-21T09:10:58;1.80;;;1.70;;
10303;SDS011;5197;48.152;8.590;2023-11-21T09:13:25;7.80;;;5.47;;
10303;SDS011;5197;48.152;8.590;2023-11-21T09:15:53;8.40;;;5.03;;
10303;SDS011;5197;48.152;8.590;2023-11-21T09:18:20;5.27;;;3.50;;
10303;SDS011;5197;48.152;8.590;2023-11-21T09:20:47;1.87;;;1.70;;
10303;SDS011;5197;48.152;8.590;2023-11-21T09:23:14;2.83;;;1.77;;
10303;SDS011;5197;48.152;8.590;2023-11-21T09:25:42;1.70;;;1.60;;
10303;SDS011;5197;48.152;8.590;2023-11-21T09:28:12;1.83;;;1.63;;
10303;SDS011;5197;48.152;8.590;2023-11-21T09:30:39;2.10;;;1.67;;
10303;SDS011;5197;48.152;8.590;2023-11-21T09:33:06;2.07;;;1.60;;
10303;SDS011;5197;48.152;8.590;2023-11-21T09:35:37;1.70;;;1.60;;
10303;SDS011;5197;48.152;8.590;2023-11-21T09:38:05;2.63;;;1.97;;
10303;SDS011;5197;48.152;8.590;2023-11-21T09:40:36;2.13;;;1.80;;
10303;SDS011;5197;48.152;8.590;2023-11-21T09:43:05;2.27;;;1.80;;
10303;SDS011;5197;48.152;8.590;2023-11-21T09:45:44;2.07;;;1.97;;
10303;SDS011;5197;48.152;8.590;2023-11-21T09:48:14;1.80;;;1.70;;
10303;SDS011;5197;48.152;8.590;2023-11-21T09:50:43;1.67;;;1.67;;
10303;SDS011;5197;48.152;8.590;2023-11-21T09:55:45;1.37;;;1.33;;
10303;SDS011;5197;48.152;8.590;2023-11-21T09:58:14;1.60;;;1.50;;
10303;SDS011;5197;48.152;8.590;2023-11-21T10:00:45;1.40;;;1.30;;
10303;SDS011;5197;48.152;8.590;2023-11-21T10:03:15;1.57;;;1.43;;
10303;SDS011;5197;48.152;8.590;2023-11-21T10:05:43;1.93;;;1.83;;
10303;SDS011;5197;48.152;8.590;2023-11-21T10:08:13;1.20;;;1.20;;
10303;SDS011;5197;48.152;8.590;2023-11-21T10:10:44;1.17;;;1.17;;
10303;SDS011;5197;48.152;8.590;2023-11-21T10:13:15;1.17;;;1.07;;
10303;SDS011;5197;48.152;8.590;2023-11-21T10:15:49;2.17;;;1.10;;
10303;SDS011;5197;48.152;8.590;2023-11-21T10:18:18;1.10;;;1.10;;
10303;SDS011;5197;48.152;8.590;2023-11-21T10:20:46;1.60;;;1.33;;
10303;SDS011;5197;48.152;8.590;2023-11-21T10:23:19;1.53;;;1.43;;
10303;SDS011;5197;48.152;8.590;2023-11-21T10:25:49;2.07;;;1.70;;
10303;SDS011;5197;48.152;8.590;2023-11-21T10:28:18;2.30;;;1.80;;
10303;SDS011;5197;48.152;8.590;2023-11-21T10:30:47;1.33;;;1.23;;
10303;SDS011;5197;48.152;8.590;2023-11-21T10:33:14;1.60;;;1.50;;
10303;SDS011;5197;48.152;8.590;2023-11-21T10:38:09;2.20;;;1.70;;
10303;SDS011;5197;48.152;8.590;2023-11-21T10:40:43;1.20;;;1.10;;
10303;SDS011;5197;48.152;8.590;2023-11-21T10:43:11;1.40;;;1.30;;
10303;SDS011;5197;48.152;8.590;2023-11-21T10:45:42;2.13;;;1.40;;
10303;SDS011;5197;48.152;8.590;2023-11-21T10:48:11;1.20;;;1.20;;
10303;SDS011;5197;48.152;8.590;2023-11-21T10:50:44;1.83;;;1.07;;
10303;SDS011;5197;48.152;8.590;2023-11-21T10:53:12;1.43;;;1.33;;
10303;SDS011;5197;48.152;8.590;2023-11-21T10:55:40;1.13;;;1.03;;
10303;SDS011;5197;48.152;8.590;2023-11-21T10:58:07;1.77;;;1.30;;
10303;SDS011;5197;48.152;8.590;2023-11-21T11:00:37;3.03;;;1.30;;
10303;SDS011;5197;48.152;8.590;2023-11-21T11:03:07;0.90;;;0.90;;
10303;SDS011;5197;48.152;8.590;2023-11-21T11:05:42;1.43;;;0.90;;
10303;SDS011;5197;48.152;8.590;2023-11-21T11:08:19;4.53;;;0.90;;
10303;SDS011;5197;48.152;8.590;2023-11-21T11:10:53;0.83;;;0.83;;
10303;SDS011;5197;48.152;8.590;2023-11-21T11:13:21;0.90;;;0.90;;
10303;SDS011;5197;48.152;8.590;2023-11-21T11:15:49;0.97;;;0.90;;
10303;SDS011;5197;48.152;8.590;2023-11-21T11:18:17;1.93;;;1.10;;
10303;SDS011;5197;48.152;8.590;2023-11-21T11:20:45;1.50;;;0.90;;
10303;SDS011;5197;48.152;8.590;2023-11-21T11:26:20;0.80;;;0.80;;
10303;SDS011;5197;48.152;8.590;2023-11-21T11:29:59;1.70;;;1.00;;
10303;SDS011;5197;48.152;8.590;2023-11-21T11:34:36;1.00;;;1.00;;
10303;SDS011;5197;48.152;8.590;2023-11-21T11:37:20;1.17;;;1.10;;
10303;SDS011;5197;48.152;8.590;2023-11-21T11:39:49;1.53;;;0.83;;
10303;SDS011;5197;48.152;8.590;2023-11-21T11:42:17;0.80;;;0.80;;
10303;SDS011;5197;48.152;8.590;2023-11-21T11:44:47;1.43;;;0.70;;
10303;SDS011;5197;48.152;8.590;2023-11-21T11:47:22;0.80;;;0.80;;
10303;SDS011;5197;48.152;8.590;2023-11-21T11:49:55;1.60;;;0.60;;
10303;SDS011;5197;48.152;8.590;2023-11-21T11:52:44;0.50;;;0.50;;
10303;SDS011;5197;48.152;8.590;2023-11-21T11:55:20;0.70;;;0.70;;
10303;SDS011;5197;48.152;8.590;2023-11-21T11:57:52;0.63;;;0.50;;
10303;SDS011;5197;48.152;8.590;2023-11-21T12:02:57;0.53;;;0.53;;
10303;SDS011;5197;48.152;8.590;2023-11-21T12:05:30;0.60;;;0.60;;
10303;SDS011;5197;48.152;8.590;2023-11-21T12:08:11;0.50;;;0.50;;
10303;SDS011;5197;48.152;8.590;2023-11-21T12:10:39;0.60;;;0.60;;
10303;SDS011;5197;48.152;8.590;2023-11-21T12:13:07;1.03;;;0.60;;
10303;SDS011;5197;48.152;8.590;2023-11-21T12:15:36;0.40;;;0.40;;
10303;SDS011;5197;48.152;8.590;2023-11-21T12:18:05;0.60;;;0.60;;
10303;SDS011;5197;48.152;8.590;2023-11-21T12:20:32;0.80;;;0.80;;
10303;SDS011;5197;48.152;8.590;2023-11-21T12:23:05;0.60;;;0.40;;
10303;SDS011;5197;48.152;8.590;2023-11-21T12:25:35;1.33;;;0.53;;
10303;SDS011;5197;48.152;8.590;2023-11-21T12:28:03;1.53;;;0.70;;
10303;SDS011;5197;48.152;8.590;2023-11-21T12:30:33;0.60;;;0.60;;
10303;SDS011;5197;48.152;8.590;2023-11-21T12:33:05;0.63;;;0.63;;
10303;SDS011;5197;48.152;8.590;2023-11-21T12:35:36;0.70;;;0.70;;
10303;SDS011;5197;48.152;8.590;2023-11-21T12:38:03;0.70;;;0.60;;
10303;SDS011;5197;48.152;8.590;2023-11-21T12:40:35;0.67;;;0.67;;
10303;SDS011;5197;48.152;8.590;2023-11-21T12:43:03;0.70;;;0.70;;
10303;SDS011;5197;48.152;8.590;2023-11-21T12:45:31;0.70;;;0.70;;
10303;SDS011;5197;48.152;8.590;2023-11-21T12:47:59;0.37;;;0.37;;
10303;SDS011;5197;48.152;8.590;2023-11-21T12:50:30;1.27;;;0.77;;
10303;SDS011;5197;48.152;8.590;2023-11-21T12:53:09;1.37;;;0.70;;
10303;SDS011;5197;48.152;8.590;2023-11-21T12:55:43;1.70;;;0.60;;
10303;SDS011;5197;48.152;8.590;2023-11-21T12:58:16;0.53;;;0.53;;
10303;SDS011;5197;48.152;8.590;2023-11-21T13:00:51;0.50;;;0.40;;
10303;SDS011;5197;48.152;8.590;2023-11-21T13:03:20;0.37;;;0.37;;
10303;SDS011;5197;48.152;8.590;2023-11-21T13:05:52;0.53;;;0.50;;
10303;SDS011;5197;48.152;8.590;2023-11-21T13:08:24;0.77;;;0.33;;
10303;SDS011;5197;48.152;8.590;2023-11-21T13:10:53;0.40;;;0.40;;
10303;SDS011;5197;48.152;8.590;2023-11-21T13:13:22;0.40;;;0.40;;
10303;SDS011;5197;48.152;8.590;2023-11-21T13:15:52;0.40;;;0.40;;
10303;SDS011;5197;48.152;8.590;2023-11-21T13:18:24;0.23;;;0.23;;
10303;SDS011;5197;48.152;8.590;2023-11-21T13:21:00;0.37;;;0.37;;
10303;SDS011;5197;48.152;8.590;2023-11-21T13:23:41;1.53;;;0.47;;
10303;SDS011;5197;48.152;8.590;2023-11-21T13:26:09;1.63;;;0.37;;
10303;SDS011;5197;48.152;8.590;2023-11-21T13:28:37;0.27;;;0.27;;
10303;SDS011;5197;48.152;8.590;2023-11-21T13:31:05;0.60;;;0.40;;
10303;SDS011;5197;48.152;8.590;2023-11-21T13:33:49;0.30;;;0.30;;
10303;SDS011;5197;48.152;8.590;2023-11-21T13:36:22;0.50;;;0.50;;
10303;SDS011;5197;48.152;8.590;2023-11-21T13:38:51;0.30;;;0.30;;
10303;SDS011;5197;48.152;8.590;2023-11-21T13:41:19;0.33;;;0.27;;
10303;SDS011;5197;48.152;8.590;2023-11-21T13:43:46;0.37;;;0.37;;
10303;SDS011;5197;48.152;8.590;2023-11-21T13:46:23;0.30;;;0.30;;
10303;SDS011;5197;48.152;8.590;2023-11-21T13:48:50;0.40;;;0.40;;
10303;SDS011;5197;48.152;8.590;2023-11-21T13:51:23;0.83;;;0.40;;
10303;SDS011;5197;48.152;8.590;2023-11-21T13:54:00;0.40;;;0.40;;
10303;SDS011;5197;48.152;8.590;2023-11-21T13:56:28;0.37;;;0.20;;
10303;SDS011;5197;48.152;8.590;2023-11-21T13:58:55;0.10;;;0.10;;
10303;SDS011;5197;48.152;8.590;2023-11-21T14:01:24;0.30;;;0.30;;
10303;SDS011;5197;48.152;8.590;2023-11-21T14:03:59;0.10;;;0.10;;
10303;SDS011;5197;48.152;8.590;2023-11-21T14:06:49;0.30;;;0.30;;
10303;SDS011;5197;48.152;8.590;2023-11-21T14:09:21;0.30;;;0.30;;
10303;SDS011;5197;48.152;8.590;2023-11-21T14:11:54;0.20;;;0.20;;
10303;SDS011;5197;48.152;8.590;2023-11-21T14:14:27;0.20;;;0.20;;
10303;SDS011;5197;48.152;8.590;2023-11-21T14:16:54;0.20;;;0.20;;
10303;SDS011;5197;48.152;8.590;2023-11-21T14:19:25;0.40;;;0.40;;
10303;SDS011;5197;48.152;8.590;2023-11-21T14:21:58;0.50;;;0.50;;
10303;SDS011;5197;48.152;8.590;2023-11-21T14:24:25;0.30;;;0.30;;
10303;SDS011;5197;48.152;8.590;2023-11-21T14:26:52;0.30;;;0.30;;
10303;SDS011;5197;48.152;8.590;2023-11-21T14:29:20;0.37;;;0.37;;
10303;SDS011;5197;48.152;8.590;2023-11-21T14:31:50;0.90;;;0.37;;
10303;SDS011;5197;48.152;8.590;2023-11-21T14:34:20;0.40;;;0.40;;
10303;SDS011;5197;48.152;8.590;2023-11-21T14:36:49;0.60;;;0.60;;
10303;SDS011;5197;48.152;8.590;2023-11-21T14:39:17;1.07;;;0.40;;
10303;SDS011;5197;48.152;8.590;2023-11-21T14:41:53;0.57;;;0.50;;
10303;SDS011;5197;48.152;8.590;2023-11-21T14:44:22;0.77;;;0.77;;
10303;SDS011;5197;48.152;8.590;2023-11-21T14:46:53;0.50;;;0.50;;
10303;SDS011;5197;48.152;8.590;2023-11-21T14:49:24;0.83;;;0.40;;
10303;SDS011;5197;48.152;8.590;2023-11-21T14:51:54;0.60;;;0.60;;
10303;SDS011;5197;48.152;8.590;2023-11-21T14:54:44;0.97;;;0.60;;
10303;SDS011;5197;48.152;8.590;2023-11-21T14:57:24;1.90;;;0.40;;
10303;SDS011;5197;48.152;8.590;2023-11-21T14:59:53;0.17;;;0.17;;
10303;SDS011;5197;48.152;8.590;2023-11-21T15:02:24;0.90;;;0.23;;
10303;SDS011;5197;48.152;8.590;2023-11-21T15:05:11;0.10;;;0.10;;
10303;SDS011;5197;48.152;8.590;2023-11-21T15:07:45;0.30;;;0.30;;
10303;SDS011;5197;48.152;8.590;2023-11-21T15:10:18;0.57;;;0.57;;
10303;SDS011;5197;48.152;8.590;2023-11-21T15:12:55;0.80;;;0.50;;
10303;SDS011;5197;48.152;8.590;2023-11-21T15:15:24;0.30;;;0.30;;
10303;SDS011;5197;48.152;8.590;2023-11-21T15:17:51;0.67;;;0.67;;
10303;SDS011;5197;48.152;8.590;2023-11-21T15:20:18;0.50;;;0.50;;
10303;SDS011;5197;48.152;8.590;2023-11-21T15:22:48;0.20;;;0.20;;
10303;SDS011;5197;48.152;8.590;2023-11-21T15:25:15;0.70;;;0.70;;